Time;durP1;ratioP1;P1;durP2;ratioP2;P2;SDS_P1;SDS_P2;PMS_P1;PMS_P2;Temp;Humidity;BMP_temperature;BMP_pressure;BME280_temperature;BME280_humidity;BME280_pressure;Samples;Min_cycle;Max_cycle;Signal;HPM_P1;HPM_P2
2023/09/10 00:01:11;;;;;;;9.63;3.58;;;27.70;75.70;;;;;;4245500;28;20058;-53
2023/09/10 00:03:14;;;;;;;14.55;4.03;;;27.70;76.00;;;;;;4246556;28;20043;-54
2023/09/10 00:05:18;;;;;;;12.77;4.32;;;27.70;75.90;;;;;;4246391;28;20051;-54
2023/09/10 00:07:20;;;;;;;12.73;4.13;;;27.60;75.90;;;;;;4246485;28;20047;-55
2023/09/10 00:09:22;;;;;;;8.77;4.32;;;27.60;75.90;;;;;;4246196;28;20039;-54
2023/09/10 00:11:25;;;;;;;16.88;3.72;;;27.60;76.10;;;;;;4245825;28;20103;-55
2023/09/10 00:13:28;;;;;;;10.13;4.03;;;27.60;76.20;;;;;;4246589;28;20096;-55
2023/09/10 00:15:30;;;;;;;9.73;3.85;;;27.60;76.40;;;;;;4246109;28;20047;-54
2023/09/10 00:17:32;;;;;;;10.15;3.97;;;27.60;76.40;;;;;;4236151;27;20047;-55
2023/09/10 00:19:34;;;;;;;16.15;3.88;;;27.50;76.30;;;;;;4249361;27;20474;-55
2023/09/10 00:21:38;;;;;;;9.50;3.58;;;27.50;76.40;;;;;;4249944;27;20147;-54
2023/09/10 00:23:40;;;;;;;12.30;4.22;;;27.50;76.60;;;;;;4231722;28;20075;-56
2023/09/10 00:25:42;;;;;;;12.90;4.60;;;27.50;76.50;;;;;;4249938;27;20073;-54
2023/09/10 00:27:44;;;;;;;12.23;3.70;;;27.40;76.50;;;;;;4249739;27;20071;-54
2023/09/10 00:29:46;;;;;;;9.60;4.22;;;27.50;76.60;;;;;;4245092;27;20047;-54
2023/09/10 00:31:48;;;;;;;5.63;3.25;;;27.40;76.40;;;;;;4231468;28;20047;-54
2023/09/10 00:33:50;;;;;;;13.27;4.20;;;27.40;76.60;;;;;;4249844;27;20036;-55
2023/09/10 00:35:52;;;;;;;10.45;4.07;;;27.40;76.50;;;;;;4249873;27;20457;-54
2023/09/10 00:37:56;;;;;;;10.98;4.00;;;27.40;76.50;;;;;;4249441;27;20491;-55
2023/09/10 00:40:04;;;;;;;10.55;3.90;;;27.40;76.60;;;;;;4248239;27;20043;-55
2023/09/10 00:42:06;;;;;;;9.02;3.78;;;27.30;76.60;;;;;;4249549;27;20050;-54
2023/09/10 00:44:08;;;;;;;13.50;4.60;;;27.30;76.60;;;;;;4249177;27;20126;-55
2023/09/10 00:46:10;;;;;;;15.98;4.47;;;27.30;76.70;;;;;;4249578;27;20461;-54
2023/09/10 00:48:13;;;;;;;14.00;4.15;;;27.20;76.70;;;;;;4249533;27;20489;-54
2023/09/10 00:50:16;;;;;;;14.93;4.65;;;27.20;76.60;;;;;;4248146;27;20050;-54
2023/09/10 00:52:21;;;;;;;16.15;4.10;;;27.20;76.70;;;;;;4249432;27;20537;-54
2023/09/10 00:54:25;;;;;;;;;;;27.20;76.70;;;;;;4249760;27;20480;-53
2023/09/10 00:56:27;;;;;;;13.85;3.83;;;27.20;77.00;;;;;;4249367;27;19923;-54
2023/09/10 00:58:29;;;;;;;15.65;3.97;;;27.10;76.90;;;;;;4249035;27;20043;-53
2023/09/10 01:00:33;;;;;;;8.82;3.50;;;27.10;76.90;;;;;;4248426;27;20127;-54
2023/09/10 01:02:35;;;;;;;12.90;4.35;;;27.10;77.00;;;;;;4249469;27;20039;-54
2023/09/10 01:04:38;;;;;;;13.35;3.90;;;27.10;77.30;;;;;;4249325;27;20074;-54
2023/09/10 01:06:40;;;;;;;9.10;3.90;;;27.10;77.00;;;;;;4249331;27;20043;-54
2023/09/10 01:08:42;;;;;;;12.10;3.75;;;27.10;77.00;;;;;;4249397;27;20040;-55
2023/09/10 01:10:54;;;;;;;12.25;3.90;;;27.00;77.30;;;;;;4248314;27;20078;-55
2023/09/10 01:13:04;;;;;;;14.05;4.28;;;27.00;77.50;;;;;;4232138;28;20050;-55
2023/09/10 01:15:12;;;;;;;12.45;4.20;;;27.00;77.30;;;;;;4240923;27;20459;-54
2023/09/10 01:17:20;;;;;;;10.52;4.55;;;27.00;77.30;;;;;;4246065;27;20054;-54
2023/09/10 01:20:00;;;;;;;9.77;4.35;;;26.90;77.40;;;;;;4249000;27;20481;-55
2023/09/10 01:22:09;;;;;;;14.18;3.97;;;26.90;77.80;;;;;;4223189;27;20488;-55
2023/09/10 01:24:19;;;;;;;11.52;4.55;;;26.80;77.60;;;;;;4249502;27;20546;-56
2023/09/10 01:26:23;;;;;;;12.93;4.28;;;26.90;77.60;;;;;;4248847;27;20076;-55
2023/09/10 01:28:25;;;;;;;11.80;3.70;;;26.90;77.60;;;;;;4248308;27;20677;-55
2023/09/10 01:30:27;;;;;;;10.45;4.30;;;26.80;77.80;;;;;;4248196;27;20484;-54
2023/09/10 01:32:34;;;;;;;12.00;4.18;;;26.80;77.70;;;;;;4249499;27;20150;-55
2023/09/10 01:34:44;;;;;;;13.88;3.92;;;26.80;77.90;;;;;;4230538;28;20052;-53
2023/09/10 01:36:51;;;;;;;13.00;3.80;;;26.80;77.80;;;;;;4248785;27;20042;-55
2023/09/10 01:39:00;;;;;;;14.40;4.28;;;26.80;77.80;;;;;;4232205;28;20067;-54
2023/09/10 01:41:04;;;;;;;12.45;3.92;;;26.80;77.80;;;;;;4240118;27;20497;-54
2023/09/10 01:43:08;;;;;;;9.30;4.32;;;26.80;77.80;;;;;;4248999;27;20047;-54
2023/09/10 01:45:11;;;;;;;10.98;4.05;;;26.70;77.80;;;;;;4248844;27;20047;-55
2023/09/10 01:47:13;;;;;;;16.65;3.90;;;26.80;78.40;;;;;;4230505;28;20050;-55
2023/09/10 01:49:17;;;;;;;9.05;3.35;;;26.80;77.90;;;;;;4231751;28;20058;-54
2023/09/10 01:51:19;;;;;;;15.90;4.22;;;26.80;77.90;;;;;;4239771;27;20057;-55
2023/09/10 01:53:21;;;;;;;12.70;3.72;;;26.70;77.90;;;;;;4248888;27;20040;-54
2023/09/10 01:55:24;;;;;;;9.50;3.63;;;26.70;77.80;;;;;;4249264;27;20051;-54
2023/09/10 01:57:26;;;;;;;9.75;3.72;;;26.70;77.70;;;;;;4249129;27;20172;-55
2023/09/10 01:59:29;;;;;;;12.88;3.45;;;26.70;77.80;;;;;;4249653;27;20119;-59
2023/09/10 02:01:31;;;;;;;13.27;4.03;;;26.70;77.90;;;;;;4248665;27;20074;-54
2023/09/10 02:03:33;;;;;;;9.05;3.78;;;26.70;77.90;;;;;;4250308;27;20046;-55
2023/09/10 02:05:36;;;;;;;7.88;3.40;;;26.70;78.00;;;;;;4250007;27;20047;-54
2023/09/10 02:07:38;;;;;;;9.93;3.20;;;26.70;78.30;;;;;;4249100;27;20047;-55
2023/09/10 02:09:40;;;;;;;14.00;3.92;;;26.70;78.90;;;;;;4249040;27;20043;-54
2023/09/10 02:11:42;;;;;;;5.55;3.20;;;26.60;78.60;;;;;;4246980;27;20110;-54
2023/09/10 02:13:45;;;;;;;7.22;3.47;;;26.60;79.30;;;;;;4249006;27;20093;-54
2023/09/10 02:15:49;;;;;;;11.02;3.85;;;26.60;79.20;;;;;;4248240;27;20051;-54
2023/09/10 02:17:52;;;;;;;8.77;3.42;;;26.60;79.20;;;;;;4246206;27;20051;-54
2023/09/10 02:19:55;;;;;;;7.57;3.08;;;26.50;79.40;;;;;;4248016;27;20043;-54
2023/09/10 02:21:58;;;;;;;19.15;4.15;;;26.50;79.90;;;;;;4248058;27;20050;-55
2023/09/10 02:24:02;;;;;;;10.48;4.47;;;26.50;79.30;;;;;;4237285;27;20065;-55
2023/09/10 02:26:04;;;;;;;7.90;3.30;;;26.50;79.30;;;;;;4248893;27;20116;-59
2023/09/10 02:28:07;;;;;;;15.00;3.95;;;26.50;80.10;;;;;;4248352;27;20058;-55
2023/09/10 02:30:09;;;;;;;11.52;3.42;;;26.40;79.80;;;;;;4247654;27;20134;-54
2023/09/10 02:32:13;;;;;;;12.02;4.07;;;26.40;79.80;;;;;;4248243;27;20063;-54
2023/09/10 02:34:15;;;;;;;8.80;3.58;;;26.40;80.00;;;;;;4248216;27;20039;-55
2023/09/10 02:36:17;;;;;;;10.75;4.15;;;26.30;79.90;;;;;;4229800;28;20051;-54
2023/09/10 02:38:19;;;;;;;15.30;4.15;;;26.30;79.90;;;;;;4248147;27;20415;-54
2023/09/10 02:40:22;;;;;;;21.08;4.65;;;26.30;79.90;;;;;;4246371;27;20059;-54
2023/09/10 02:42:25;;;;;;;8.63;3.88;;;26.30;79.70;;;;;;4248264;27;20114;-54
2023/09/10 02:44:27;;;;;;;12.30;3.53;;;26.30;79.90;;;;;;4230032;28;20077;-55
2023/09/10 02:46:29;;;;;;;9.73;3.90;;;26.30;80.00;;;;;;4248406;27;20138;-55
2023/09/10 02:48:32;;;;;;;9.98;3.88;;;26.20;80.00;;;;;;4247374;27;20051;-54
2023/09/10 02:50:37;;;;;;;8.15;3.70;;;26.20;80.00;;;;;;4247264;27;20056;-54
2023/09/10 02:52:40;;;;;;;8.48;3.53;;;26.20;80.00;;;;;;4247896;27;20160;-54
2023/09/10 02:54:42;;;;;;;7.10;3.40;;;26.20;80.60;;;;;;4247764;27;20092;-55
2023/09/10 02:56:45;;;;;;;10.23;3.90;;;26.20;80.30;;;;;;4248382;27;20066;-54
2023/09/10 02:58:48;;;;;;;10.05;3.97;;;26.20;80.40;;;;;;4247959;27;20047;-55
2023/09/10 03:00:50;;;;;;;5.68;3.35;;;26.10;80.40;;;;;;4247302;27;20131;-55
2023/09/10 03:02:54;;;;;;;10.07;3.88;;;26.10;80.70;;;;;;4231294;28;20051;-55
2023/09/10 03:04:57;;;;;;;8.52;3.92;;;26.10;80.60;;;;;;4249715;27;20485;-55
2023/09/10 03:07:03;;;;;;;15.15;3.95;;;26.10;80.70;;;;;;4251255;27;20130;-54
2023/09/10 03:09:05;;;;;;;11.30;3.97;;;26.10;80.80;;;;;;4229719;28;20078;-54
2023/09/10 03:11:08;;;;;;;8.60;3.72;;;26.00;80.60;;;;;;4247604;27;20051;-55
2023/09/10 03:13:10;;;;;;;10.43;3.90;;;26.00;80.50;;;;;;4248120;27;20067;-53
2023/09/10 03:15:13;;;;;;;13.60;4.50;;;26.00;80.60;;;;;;4248655;27;20050;-54
2023/09/10 03:17:15;;;;;;;9.80;4.18;;;26.00;81.00;;;;;;4248526;27;20058;-53
2023/09/10 03:19:18;;;;;;;12.93;4.65;;;25.90;81.10;;;;;;4248611;27;20047;-55
2023/09/10 03:21:21;;;;;;;13.07;3.80;;;25.90;81.20;;;;;;4247814;27;20051;-55
2023/09/10 03:23:23;;;;;;;8.93;4.50;;;25.90;81.40;;;;;;4248335;27;20549;-54
2023/09/10 03:25:27;;;;;;;13.90;4.32;;;25.80;81.50;;;;;;4247926;27;20050;-55
2023/09/10 03:27:29;;;;;;;10.98;4.30;;;25.80;81.70;;;;;;4248642;27;20442;-54
2023/09/10 03:29:37;;;;;;;6.63;3.67;;;25.80;81.90;;;;;;4247883;27;20039;-55
2023/09/10 03:31:40;;;;;;;7.43;3.70;;;25.80;82.10;;;;;;4247397;27;20047;-57
2023/09/10 03:33:43;;;;;;;8.65;3.63;;;25.70;82.70;;;;;;4248182;27;20043;-54
2023/09/10 03:35:46;;;;;;;9.18;3.92;;;25.60;82.30;;;;;;4247316;27;20086;-55
2023/09/10 03:37:50;;;;;;;7.68;3.78;;;25.60;82.40;;;;;;4247479;27;20050;-56
2023/09/10 03:39:53;;;;;;;9.82;4.22;;;25.60;82.40;;;;;;4247254;27;20069;-57
2023/09/10 03:41:55;;;;;;;11.60;4.18;;;25.60;82.60;;;;;;4247061;27;20050;-54
2023/09/10 03:43:59;;;;;;;13.73;4.78;;;25.50;82.70;;;;;;4248547;27;20047;-55
2023/09/10 03:46:01;;;;;;;14.80;3.70;;;25.50;83.60;;;;;;4250969;27;20396;-64
2023/09/10 03:48:04;;;;;;;11.90;4.35;;;25.50;83.30;;;;;;4250767;27;20490;-55
2023/09/10 03:50:07;;;;;;;13.20;4.38;;;25.50;83.40;;;;;;4248772;27;20058;-54
2023/09/10 03:52:16;;;;;;;8.88;4.78;;;25.50;83.40;;;;;;4246333;27;20035;-54
2023/09/10 03:54:20;;;;;;;16.02;4.65;;;25.50;83.60;;;;;;4229000;28;20047;-54
2023/09/10 03:56:23;;;;;;;10.55;4.50;;;25.50;83.40;;;;;;4247267;28;20050;-54
2023/09/10 03:58:25;;;;;;;11.95;4.88;;;25.40;83.50;;;;;;4247212;28;20403;-56
2023/09/10 04:00:27;;;;;;;16.45;5.15;;;25.40;83.50;;;;;;4246394;28;20408;-54
2023/09/10 04:02:30;;;;;;;10.73;4.75;;;25.40;83.60;;;;;;4247130;28;20488;-54
2023/09/10 04:04:33;;;;;;;14.48;5.07;;;25.40;83.50;;;;;;4247311;28;20046;-54
2023/09/10 04:06:37;;;;;;;12.70;5.50;;;25.40;83.70;;;;;;4246447;28;20058;-54
2023/09/10 04:08:39;;;;;;;11.88;4.05;;;25.40;84.00;;;;;;4247278;28;20047;-54
2023/09/10 04:10:43;;;;;;;10.23;4.68;;;25.40;83.90;;;;;;4246343;28;20373;-55
2023/09/10 04:12:46;;;;;;;16.70;5.25;;;25.40;83.80;;;;;;4247071;28;20043;-55
2023/09/10 04:14:48;;;;;;;11.88;4.95;;;25.40;83.70;;;;;;4247269;28;20480;-54
2023/09/10 04:16:50;;;;;;;13.73;4.95;;;25.40;83.80;;;;;;4246478;28;20039;-54
2023/09/10 04:18:53;;;;;;;10.77;4.93;;;25.40;83.70;;;;;;4228725;28;20044;-54
2023/09/10 04:20:55;;;;;;;14.98;5.15;;;25.30;83.80;;;;;;4234442;28;20134;-60
2023/09/10 04:22:57;;;;;;;12.73;5.50;;;25.30;84.00;;;;;;4235699;28;20039;-54
2023/09/10 04:24:59;;;;;;;9.25;4.70;;;25.30;84.20;;;;;;4246942;28;20775;-55
2023/09/10 04:27:03;;;;;;;9.15;3.90;;;25.20;84.30;;;;;;4246891;28;20082;-54
2023/09/10 04:29:06;;;;;;;11.50;4.70;;;25.20;85.00;;;;;;4247050;28;20126;-54
2023/09/10 04:31:16;;;;;;;14.65;4.75;;;25.10;85.10;;;;;;4245915;28;20035;-54
2023/09/10 04:33:19;;;;;;;13.55;5.30;;;25.10;85.40;;;;;;4235506;28;20051;-54
2023/09/10 04:35:21;;;;;;;16.60;5.22;;;25.00;85.10;;;;;;4246485;28;20039;-54
2023/09/10 04:37:23;;;;;;;14.90;5.85;;;25.10;85.00;;;;;;4228301;28;20039;-54
2023/09/10 04:39:26;;;;;;;13.70;5.85;;;25.10;85.20;;;;;;4243711;28;20096;-55
2023/09/10 04:41:28;;;;;;;13.63;5.60;;;25.00;85.20;;;;;;4245850;28;20035;-54
2023/09/10 04:43:31;;;;;;;10.50;5.18;;;25.00;85.50;;;;;;4247135;28;20051;-54
2023/09/10 04:45:33;;;;;;;19.08;5.47;;;24.90;85.40;;;;;;4246899;28;20040;-54
2023/09/10 04:47:35;;;;;;;14.38;4.95;;;24.90;85.50;;;;;;4246799;28;20075;-57
2023/09/10 04:49:38;;;;;;;11.50;4.80;;;24.90;85.60;;;;;;4246453;28;20051;-54
2023/09/10 04:51:40;;;;;;;14.90;4.82;;;24.80;85.60;;;;;;4245831;28;20059;-54
2023/09/10 04:53:44;;;;;;;12.40;5.07;;;24.90;85.70;;;;;;4246425;28;20074;-55
2023/09/10 04:55:52;;;;;;;14.30;5.18;;;24.90;85.80;;;;;;4246942;28;20065;-55
2023/09/10 04:57:54;;;;;;;12.88;4.45;;;24.90;86.10;;;;;;4246492;28;20074;-55
2023/09/10 04:59:58;;;;;;;17.98;5.75;;;24.70;86.20;;;;;;4246782;28;20128;-55
2023/09/10 05:02:00;;;;;;;12.43;5.50;;;24.80;86.20;;;;;;4245499;28;20097;-55
2023/09/10 05:04:03;;;;;;;13.63;5.20;;;24.70;86.20;;;;;;4247582;27;20043;-55
2023/09/10 05:06:05;;;;;;;19.13;5.00;;;24.70;86.20;;;;;;4249886;27;20043;-54
2023/09/10 05:08:07;;;;;;;11.20;4.93;;;24.70;86.40;;;;;;4249143;27;20174;-54
2023/09/10 05:10:10;;;;;;;12.77;4.97;;;24.60;86.70;;;;;;4249705;27;20126;-55
2023/09/10 05:12:12;;;;;;;16.00;5.03;;;24.60;86.70;;;;;;4248632;27;20043;-54
2023/09/10 05:14:15;;;;;;;15.30;4.53;;;24.60;86.70;;;;;;4245697;27;20078;-55
2023/09/10 05:16:19;;;;;;;12.38;5.15;;;24.60;86.70;;;;;;4249540;27;20047;-54
2023/09/10 05:18:21;;;;;;;11.88;4.28;;;24.60;86.80;;;;;;4249198;27;20066;-54
2023/09/10 05:20:24;;;;;;;13.93;4.88;;;24.60;86.90;;;;;;4249340;27;20134;-54
2023/09/10 05:22:26;;;;;;;13.05;5.03;;;24.60;86.90;;;;;;4248437;27;20046;-54
2023/09/10 05:24:28;;;;;;;13.35;4.88;;;24.50;86.90;;;;;;4249190;27;20104;-54
2023/09/10 05:26:30;;;;;;;11.48;4.90;;;24.50;86.70;;;;;;4249422;27;20125;-54
2023/09/10 05:28:33;;;;;;;13.88;4.78;;;24.60;86.70;;;;;;4249733;27;20118;-58
2023/09/10 05:30:37;;;;;;;15.75;4.47;;;24.40;87.00;;;;;;4250094;27;20047;-55
2023/09/10 05:32:41;;;;;;;18.20;4.87;;;24.40;87.50;;;;;;4249876;27;20560;-56
2023/09/10 05:34:43;;;;;;;11.88;4.72;;;24.40;87.30;;;;;;4248482;27;20507;-62
2023/09/10 05:36:45;;;;;;;10.73;4.75;;;24.40;87.60;;;;;;4249263;27;20043;-54
2023/09/10 05:38:47;;;;;;;15.57;5.05;;;24.40;87.40;;;;;;4249105;27;20044;-56
2023/09/10 05:40:49;;;;;;;12.40;5.25;;;24.40;87.50;;;;;;4248929;27;20220;-54
2023/09/10 05:42:52;;;;;;;14.40;5.18;;;24.40;87.80;;;;;;4249740;27;20088;-58
2023/09/10 05:44:54;;;;;;;11.95;4.60;;;24.40;87.90;;;;;;4250263;27;20039;-58
2023/09/10 05:46:56;;;;;;;15.50;5.00;;;24.40;87.90;;;;;;4249138;27;20102;-53
2023/09/10 05:48:59;;;;;;;15.02;5.00;;;24.40;87.80;;;;;;4248110;27;20043;-54
2023/09/10 05:51:02;;;;;;;12.32;3.88;;;24.40;87.80;;;;;;4248277;27;20480;-54
2023/09/10 05:53:04;;;;;;;12.40;4.82;;;24.40;88.00;;;;;;4248896;27;20127;-55
2023/09/10 05:55:07;;;;;;;10.43;4.50;;;24.40;87.90;;;;;;4230609;28;20493;-54
2023/09/10 05:57:09;;;;;;;9.20;4.55;;;24.40;88.00;;;;;;4246664;27;20122;-54
2023/09/10 05:59:11;;;;;;;10.48;4.43;;;24.40;88.60;;;;;;4248927;27;20082;-54
2023/09/10 06:01:13;;;;;;;11.73;5.15;;;24.40;88.20;;;;;;4236293;27;20043;-59
2023/09/10 06:03:15;;;;;;;13.05;4.28;;;24.40;88.20;;;;;;4248293;27;20043;-56
2023/09/10 06:05:19;;;;;;;10.05;4.70;;;24.40;88.20;;;;;;4248693;27;20135;-54
2023/09/10 06:07:21;;;;;;;9.63;4.38;;;24.40;88.40;;;;;;4248508;27;20039;-54
2023/09/10 06:09:23;;;;;;;10.43;4.70;;;24.40;88.30;;;;;;4248545;27;20074;-54
2023/09/10 06:11:25;;;;;;;11.00;4.63;;;24.40;88.40;;;;;;4247936;27;20039;-54
2023/09/10 06:13:30;;;;;;;14.88;4.45;;;24.40;88.50;;;;;;4248489;27;20049;-54
2023/09/10 06:15:33;;;;;;;9.30;4.78;;;24.30;88.50;;;;;;4230037;28;20048;-55
2023/09/10 06:17:35;;;;;;;11.98;4.65;;;24.40;88.60;;;;;;4246753;27;20045;-54
2023/09/10 06:19:37;;;;;;;13.02;5.03;;;24.40;88.50;;;;;;4248282;27;20035;-54
2023/09/10 06:21:41;;;;;;;11.75;4.70;;;24.40;88.40;;;;;;4247247;27;20521;-53
2023/09/10 06:23:43;;;;;;;13.98;5.55;;;24.40;88.30;;;;;;4248662;27;20090;-54
2023/09/10 06:25:45;;;;;;;14.55;5.75;;;24.50;88.00;;;;;;4247989;27;20042;-55
2023/09/10 06:27:47;;;;;;;9.60;4.10;;;24.50;88.00;;;;;;4248096;27;20073;-54
2023/09/10 06:29:50;;;;;;;8.55;4.03;;;24.50;88.20;;;;;;4248366;27;20139;-55
2023/09/10 06:31:52;;;;;;;15.10;5.00;;;24.60;88.20;;;;;;4247172;27;20126;-54
2023/09/10 06:33:54;;;;;;;16.70;5.03;;;24.60;88.00;;;;;;4248428;27;20053;-54
2023/09/10 06:35:56;;;;;;;9.93;4.63;;;24.60;87.80;;;;;;4248583;27;20084;-57
2023/09/10 06:38:00;;;;;;;9.40;4.57;;;24.60;88.00;;;;;;4230036;28;20071;-55
2023/09/10 06:40:02;;;;;;;14.35;4.75;;;24.70;88.10;;;;;;4248388;27;20039;-58
2023/09/10 06:42:05;;;;;;;12.43;4.50;;;24.70;88.00;;;;;;4247438;27;20039;-55
2023/09/10 06:44:07;;;;;;;18.88;5.22;;;24.70;87.70;;;;;;4248609;27;20135;-55
2023/09/10 06:46:10;;;;;;;13.38;4.30;;;24.80;87.70;;;;;;4247641;27;20047;-54
2023/09/10 06:48:12;;;;;;;10.55;4.20;;;24.80;87.50;;;;;;4247872;27;20082;-54
2023/09/10 06:50:14;;;;;;;15.45;4.78;;;24.90;87.40;;;;;;4247412;27;20043;-60
2023/09/10 06:52:17;;;;;;;14.63;5.32;;;24.90;87.10;;;;;;4247218;27;20054;-56
2023/09/10 06:54:20;;;;;;;14.13;4.75;;;25.00;86.80;;;;;;4231328;28;20048;-56
2023/09/10 06:56:25;;;;;;;17.02;5.15;;;25.00;86.70;;;;;;4238763;27;20408;-54
2023/09/10 06:58:27;;;;;;;13.60;4.80;;;25.10;86.60;;;;;;4248188;27;20054;-55
2023/09/10 07:00:29;;;;;;;16.48;4.93;;;25.10;87.10;;;;;;4247706;27;20523;-54
2023/09/10 07:02:31;;;;;;;10.00;4.32;;;25.20;86.60;;;;;;4246682;27;20051;-54
2023/09/10 07:04:33;;;;;;;11.40;4.80;;;25.20;86.30;;;;;;4247739;27;20050;-54
2023/09/10 07:06:35;;;;;;;12.15;4.57;;;25.30;86.40;;;;;;4247930;27;20072;-54
2023/09/10 07:08:37;;;;;;;13.90;5.25;;;25.30;85.60;;;;;;4229895;28;20135;-54
2023/09/10 07:10:41;;;;;;;14.18;4.60;;;25.40;85.30;;;;;;4248160;27;20039;-53
2023/09/10 07:12:43;;;;;;;18.08;5.10;;;25.50;85.00;;;;;;4248485;27;20054;-54
2023/09/10 07:14:49;;;;;;;17.65;4.88;;;25.50;85.20;;;;;;4253039;27;20068;-56
2023/09/10 07:16:51;;;;;;;16.15;4.65;;;25.60;84.30;;;;;;4233317;28;20109;-56
2023/09/10 07:18:54;;;;;;;13.13;4.50;;;25.60;83.60;;;;;;4249384;27;20108;-57
2023/09/10 07:20:57;;;;;;;10.45;4.03;;;25.60;83.90;;;;;;4247833;27;20408;-54
2023/09/10 07:22:59;;;;;;;15.38;5.18;;;25.70;83.90;;;;;;4247868;27;20051;-53
2023/09/10 07:25:02;;;;;;;16.30;4.80;;;25.70;83.80;;;;;;4248282;27;20514;-55
2023/09/10 07:27:05;;;;;;;11.98;3.95;;;25.80;83.70;;;;;;4247110;27;20039;-53
2023/09/10 07:29:08;;;;;;;12.73;3.97;;;25.90;83.30;;;;;;4247247;27;20110;-52
2023/09/10 07:31:11;;;;;;;9.90;3.80;;;25.90;83.30;;;;;;4247086;27;20074;-54
2023/09/10 07:33:13;;;;;;;9.20;4.07;;;26.00;83.90;;;;;;4229232;28;20118;-54
2023/09/10 07:35:16;;;;;;;13.63;5.18;;;26.10;83.70;;;;;;4247437;27;20505;-54
2023/09/10 07:37:18;;;;;;;10.80;4.47;;;26.20;83.40;;;;;;4247250;27;20042;-54
2023/09/10 07:39:22;;;;;;;8.20;4.28;;;26.30;83.20;;;;;;4247029;27;20122;-53
2023/09/10 07:41:24;;;;;;;14.45;3.97;;;26.40;83.00;;;;;;4246660;27;20134;-54
2023/09/10 07:43:27;;;;;;;14.85;4.53;;;26.50;82.40;;;;;;4246937;27;20444;-53
2023/09/10 07:45:29;;;;;;;13.93;4.60;;;26.70;82.50;;;;;;4246549;27;20045;-55
2023/09/10 07:47:33;;;;;;;12.20;4.60;;;26.80;82.60;;;;;;4246637;27;20078;-55
2023/09/10 07:49:35;;;;;;;12.03;4.00;;;26.90;81.20;;;;;;4246597;27;20589;-55
2023/09/10 07:51:39;;;;;;;11.02;3.88;;;27.00;80.00;;;;;;4246066;27;20090;-55
2023/09/10 07:53:41;;;;;;;13.43;4.43;;;27.10;80.00;;;;;;4246715;27;20054;-53
2023/09/10 07:55:43;;;;;;;11.10;4.15;;;27.20;79.60;;;;;;4247230;27;20661;-54
2023/09/10 07:57:45;;;;;;;14.90;4.05;;;27.30;79.10;;;;;;4246626;27;20096;-54
2023/09/10 07:59:48;;;;;;;12.98;4.50;;;27.40;78.90;;;;;;4246472;28;20097;-55
2023/09/10 08:01:51;;;;;;;12.85;4.32;;;27.50;78.60;;;;;;4246077;28;20069;-55
2023/09/10 08:03:53;;;;;;;14.48;3.90;;;27.50;78.00;;;;;;4246671;28;20457;-55
2023/09/10 08:05:55;;;;;;;16.88;3.70;;;27.60;77.80;;;;;;4246798;28;20442;-55
2023/09/10 08:08:02;;;;;;;12.50;3.95;;;27.70;78.20;;;;;;4246451;28;20113;-55
2023/09/10 08:10:05;;;;;;;11.52;4.05;;;27.80;77.60;;;;;;4242927;28;20062;-55
2023/09/10 08:12:07;;;;;;;14.80;3.53;;;27.90;77.90;;;;;;4227573;28;20043;-56
2023/09/10 08:14:09;;;;;;;14.00;4.50;;;27.90;77.10;;;;;;4245922;28;20039;-55
2023/09/10 08:16:14;;;;;;;13.13;4.55;;;28.00;77.40;;;;;;4246701;28;20058;-56
2023/09/10 08:18:17;;;;;;;17.73;4.15;;;28.10;76.40;;;;;;4246553;28;20050;-55
2023/09/10 08:20:20;;;;;;;14.38;4.50;;;28.20;76.30;;;;;;4246819;28;20119;-55
2023/09/10 08:22:22;;;;;;;13.07;3.97;;;28.10;75.90;;;;;;4245934;28;20057;-55
2023/09/10 08:24:24;;;;;;;14.20;3.67;;;28.20;76.10;;;;;;4228059;28;20118;-55
2023/09/10 08:26:26;;;;;;;14.15;4.45;;;28.20;75.80;;;;;;4246616;28;20070;-56
2023/09/10 08:28:29;;;;;;;12.18;4.07;;;28.20;75.90;;;;;;4246248;28;20044;-55
2023/09/10 08:30:31;;;;;;;9.45;4.05;;;28.30;75.80;;;;;;4246272;28;20043;-55
2023/09/10 08:32:35;;;;;;;13.07;4.35;;;28.30;75.60;;;;;;4245745;28;20495;-54
2023/09/10 08:34:38;;;;;;;;;;;28.30;75.70;;;;;;4246865;28;20603;-55
2023/09/10 08:36:40;;;;;;;13.07;4.38;;;28.30;75.00;;;;;;4246726;28;19992;-56
2023/09/10 08:38:42;;;;;;;13.35;4.22;;;28.30;75.00;;;;;;4247564;27;20086;-55
2023/09/10 08:40:54;;;;;;;10.43;3.78;;;28.40;75.60;;;;;;4250038;27;20096;-53
2023/09/10 08:43:05;;;;;;;8.07;3.72;;;28.50;75.00;;;;;;4231404;28;20140;-55
2023/09/10 08:45:10;;;;;;;11.23;4.10;;;28.50;75.30;;;;;;4241368;27;20039;-55
2023/09/10 08:47:16;;;;;;;14.27;4.72;;;28.60;75.20;;;;;;4231480;28;20441;-55
2023/09/10 08:49:21;;;;;;;12.10;4.13;;;28.60;75.00;;;;;;4232851;27;20090;-55
2023/09/10 08:51:23;;;;;;;;;;;28.80;75.00;;;;;;4249539;27;20039;-55
2023/09/10 08:53:26;;;;;;;8.07;3.78;;;28.80;75.20;;;;;;4249429;27;19919;-55
2023/09/10 08:55:30;;;;;;;12.00;3.72;;;28.80;75.00;;;;;;4249365;27;20032;-55
2023/09/10 08:57:33;;;;;;;22.13;4.30;;;28.90;73.70;;;;;;4249207;27;20045;-55
2023/09/10 08:59:36;;;;;;;9.70;4.03;;;28.90;74.20;;;;;;4249442;27;20070;-55
2023/09/10 09:01:38;;;;;;;9.45;3.88;;;28.90;74.30;;;;;;4248374;27;20043;-54
2023/09/10 09:03:41;;;;;;;8.93;3.80;;;29.00;74.20;;;;;;4249590;27;20047;-54
2023/09/10 09:05:48;;;;;;;9.20;3.30;;;29.10;74.30;;;;;;4249755;27;20051;-54
2023/09/10 09:07:54;;;;;;;15.25;4.57;;;29.10;73.90;;;;;;4249428;27;20043;-54
2023/09/10 09:10:00;;;;;;;10.07;3.63;;;29.20;73.80;;;;;;4249602;27;20065;-55
2023/09/10 09:12:06;;;;;;;10.20;4.28;;;29.20;73.70;;;;;;4247018;27;20079;-53
2023/09/10 09:14:11;;;;;;;11.68;3.65;;;29.20;74.20;;;;;;4249322;27;20151;-56
2023/09/10 09:16:15;;;;;;;7.38;3.83;;;29.20;74.00;;;;;;4248747;27;20039;-54
2023/09/10 09:18:18;;;;;;;11.80;4.10;;;29.30;73.60;;;;;;4248797;27;20458;-55
2023/09/10 09:20:21;;;;;;;9.73;3.53;;;29.30;73.20;;;;;;4249332;27;20043;-55
2023/09/10 09:22:28;;;;;;;13.20;4.03;;;29.30;73.40;;;;;;4248244;27;20090;-53
2023/09/10 09:24:32;;;;;;;9.93;3.97;;;29.40;73.70;;;;;;4249047;27;20046;-55
2023/09/10 09:26:36;;;;;;;8.25;3.88;;;29.40;73.60;;;;;;4248958;27;20118;-54
2023/09/10 09:28:39;;;;;;;13.05;4.47;;;29.50;74.20;;;;;;4249131;27;20042;-54
2023/09/10 09:30:41;;;;;;;13.07;4.05;;;29.50;74.00;;;;;;4248699;27;20047;-55
2023/09/10 09:32:45;;;;;;;11.98;4.63;;;29.70;74.00;;;;;;4247994;27;20476;-55
2023/09/10 09:34:48;;;;;;;11.48;4.60;;;29.80;73.90;;;;;;4248990;27;20085;-54
2023/09/10 09:36:51;;;;;;;9.57;3.80;;;29.80;74.20;;;;;;4248722;27;20050;-55
2023/09/10 09:38:55;;;;;;;10.93;4.22;;;30.00;73.20;;;;;;4248742;27;20149;-55
2023/09/10 09:40:57;;;;;;;9.40;4.13;;;30.00;72.80;;;;;;4248845;27;20051;-55
2023/09/10 09:43:07;;;;;;;14.75;3.67;;;30.10;72.80;;;;;;4246636;27;20561;-55
2023/09/10 09:45:21;;;;;;;15.50;4.28;;;30.20;73.30;;;;;;4248641;27;20404;-54
2023/09/10 09:47:23;;;;;;;8.27;3.70;;;30.20;72.70;;;;;;4248233;27;20043;-55
2023/09/10 09:49:26;;;;;;;13.68;3.75;;;30.30;72.50;;;;;;4247970;27;20138;-54
2023/09/10 09:51:28;;;;;;;12.57;4.30;;;30.30;73.00;;;;;;4229801;28;20044;-55
2023/09/10 09:53:32;;;;;;;7.05;3.72;;;30.40;73.40;;;;;;4248130;27;20051;-54
2023/09/10 09:55:37;;;;;;;6.07;3.88;;;30.40;73.60;;;;;;4248506;27;20043;-55
2023/09/10 09:57:40;;;;;;;7.18;3.45;;;30.50;72.30;;;;;;4248221;27;20077;-54
2023/09/10 09:59:45;;;;;;;7.15;3.50;;;30.50;73.00;;;;;;4248848;27;20055;-56
2023/09/10 10:01:47;;;;;;;12.70;4.32;;;30.60;73.20;;;;;;4229223;28;20051;-55
2023/09/10 10:03:50;;;;;;;7.90;4.00;;;30.60;72.80;;;;;;4248136;27;20419;-55
2023/09/10 10:05:54;;;;;;;15.38;3.92;;;30.60;73.70;;;;;;4248594;27;20066;-55
2023/09/10 10:07:56;;;;;;;11.05;4.03;;;30.70;73.00;;;;;;4248372;27;20076;-55
2023/09/10 10:09:59;;;;;;;9.60;3.58;;;30.70;72.70;;;;;;4229785;28;20169;-55
2023/09/10 10:12:04;;;;;;;10.98;4.10;;;30.70;73.40;;;;;;4247302;27;20035;-56
2023/09/10 10:14:07;;;;;;;9.30;3.47;;;30.80;73.00;;;;;;4247258;27;20817;-55
2023/09/10 10:16:10;;;;;;;9.00;3.65;;;30.80;72.90;;;;;;4244994;27;20035;-54
2023/09/10 10:18:14;;;;;;;5.47;3.40;;;30.90;73.20;;;;;;4239946;27;20442;-54
2023/09/10 10:20:20;;;;;;;11.95;4.47;;;31.00;72.80;;;;;;4248215;27;20043;-55
2023/09/10 10:22:23;;;;;;;9.57;3.95;;;31.00;71.90;;;;;;4247031;27;20047;-55
2023/09/10 10:24:25;;;;;;;6.43;4.00;;;31.10;71.70;;;;;;4247677;27;20051;-54
2023/09/10 10:26:29;;;;;;;11.38;4.00;;;31.10;71.80;;;;;;4248068;27;20047;-55
2023/09/10 10:28:33;;;;;;;6.55;3.20;;;31.10;71.70;;;;;;4248021;27;20047;-53
2023/09/10 10:30:39;;;;;;;9.30;4.07;;;31.20;71.80;;;;;;4229886;28;20149;-55
2023/09/10 10:32:43;;;;;;;9.88;4.35;;;31.20;71.40;;;;;;4247321;27;20122;-53
2023/09/10 10:34:49;;;;;;;10.15;3.80;;;31.20;71.40;;;;;;4246915;27;20047;-55
2023/09/10 10:37:03;;;;;;;6.53;3.60;;;31.20;71.40;;;;;;4247992;27;20073;-55